createdAt,value
2018-01-27T00:00:22.924Z,4.00
2018-01-27T00:01:23.333Z,4.00
2018-01-27T00:02:22.892Z,4.00
2018-01-27T00:03:22.825Z,4.00
2018-01-27T00:04:22.849Z,4.00
2018-01-27T00:05:22.832Z,4.00
2018-01-27T00:06:22.839Z,4.00
2018-01-27T00:07:22.857Z,4.00
2018-01-27T00:08:22.868Z,4.00
2018-01-27T00:09:23.045Z,4.00
2018-01-27T00:10:23.002Z,4.00
2018-01-27T00:11:22.955Z,4.00
2018-01-27T00:12:22.948Z,4.00
2018-01-27T00:13:22.937Z,4.00
2018-01-27T00:14:22.950Z,4.00
2018-01-27T00:15:22.969Z,4.00
2018-01-27T00:16:22.980Z,4.00
2018-01-27T00:17:22.994Z,4.00
2018-01-27T00:18:23.006Z,4.00
2018-01-27T00:19:23.020Z,4.00
2018-01-27T00:20:23.036Z,4.00
2018-01-27T00:21:23.200Z,4.00
2018-01-27T00:22:23.068Z,4.00
2018-01-27T00:23:23.074Z,4.00
2018-01-27T00:24:23.089Z,4.00
2018-01-27T00:25:23.103Z,4.00
2018-01-27T00:26:23.115Z,4.00
2018-01-27T00:27:23.134Z,4.00
2018-01-27T00:28:23.142Z,4.00
2018-01-27T00:29:23.159Z,4.00
2018-01-27T00:30:23.172Z,4.00
2018-01-27T00:31:23.187Z,4.00
2018-01-27T00:32:23.195Z,4.00
2018-01-27T00:33:23.213Z,4.00
2018-01-27T00:34:23.231Z,4.00
2018-01-27T00:35:23.240Z,4.00
2018-01-27T00:36:23.289Z,4.00
2018-01-27T00:37:23.323Z,4.00
2018-01-27T00:38:23.321Z,4.00
2018-01-27T00:39:23.294Z,4.00
2018-01-27T00:41:23.322Z,4.00
2018-01-27T00:42:23.341Z,4.00
2018-01-27T00:43:23.354Z,4.00
2018-01-27T00:44:23.364Z,4.00
2018-01-27T00:45:23.384Z,4.00
2018-01-27T00:46:23.388Z,4.00
2018-01-27T00:47:23.404Z,4.00
2018-01-27T00:48:23.419Z,4.00
2018-01-27T00:49:23.431Z,4.00
2018-01-27T00:50:23.448Z,4.00
2018-01-27T00:51:23.457Z,4.00
2018-01-27T00:54:23.501Z,4.00
2018-01-27T00:55:23.513Z,4.00
2018-01-27T00:56:23.531Z,4.00
2018-01-27T00:57:23.539Z,4.00
2018-01-27T00:58:23.549Z,4.00
2018-01-27T00:59:23.571Z,4.00
2018-01-27T01:00:23.583Z,4.00
2018-01-27T01:01:23.597Z,4.00
2018-01-27T01:02:23.606Z,4.00
2018-01-27T01:03:23.618Z,4.00
2018-01-27T01:04:23.636Z,4.00
2018-01-27T01:05:23.656Z,4.00
2018-01-27T01:06:23.663Z,4.00
2018-01-27T01:07:23.830Z,4.00
2018-01-27T01:09:23.811Z,4.00
2018-01-27T01:10:24.129Z,4.00
2018-01-27T01:11:23.821Z,4.00
2018-01-27T01:12:23.746Z,4.00
2018-01-27T01:13:23.756Z,4.00
2018-01-27T01:14:23.776Z,4.00
2018-01-27T01:15:23.935Z,4.00
2018-01-27T01:16:24.100Z,4.00
2018-01-27T01:17:23.811Z,4.00
2018-01-27T01:18:23.825Z,4.00
2018-01-27T01:19:23.837Z,4.00
2018-01-27T01:20:23.852Z,4.00
2018-01-27T01:21:23.917Z,4.00
2018-01-27T01:22:23.903Z,4.00
2018-01-27T01:23:23.910Z,4.00
2018-01-27T01:24:23.911Z,4.00
2018-01-27T01:25:23.917Z,4.00
2018-01-27T01:26:23.934Z,4.00
2018-01-27T01:27:23.949Z,4.00
2018-01-27T01:28:23.959Z,4.00
2018-01-27T01:29:23.975Z,4.00
2018-01-27T01:30:23.990Z,4.00
2018-01-27T01:31:24.003Z,4.00
2018-01-27T01:32:24.017Z,4.00
2018-01-27T01:33:24.025Z,4.00
2018-01-27T01:34:24.043Z,4.00
2018-01-27T01:35:24.052Z,4.00
2018-01-27T01:36:24.067Z,4.00
2018-01-27T01:37:24.083Z,4.00
2018-01-27T01:38:24.097Z,4.00
2018-01-27T01:39:24.109Z,4.00
2018-01-27T01:40:24.121Z,4.00
2018-01-27T01:41:24.141Z,4.00
2018-01-27T01:42:24.308Z,4.00
2018-01-27T01:43:24.185Z,4.00
2018-01-27T01:44:24.176Z,4.00
2018-01-27T01:45:24.189Z,4.00
2018-01-27T01:46:24.203Z,4.00
2018-01-27T01:47:24.217Z,4.00
2018-01-27T01:48:24.231Z,4.00
2018-01-27T01:49:24.396Z,4.00
2018-01-27T01:50:24.264Z,4.00
2018-01-27T01:51:24.271Z,4.00
2018-01-27T01:52:24.287Z,4.00
2018-01-27T01:53:24.298Z,4.00
2018-01-27T01:54:24.313Z,4.00
2018-01-27T01:55:24.328Z,4.00
2018-01-27T01:56:24.342Z,4.00
2018-01-27T01:57:24.352Z,4.00
2018-01-27T01:58:24.366Z,4.00
2018-01-27T01:59:24.380Z,4.00
2018-01-27T02:00:24.394Z,4.00
2018-01-27T02:01:24.412Z,4.00
2018-01-27T02:02:24.570Z,4.00
2018-01-27T02:03:24.435Z,4.00
2018-01-27T02:04:24.449Z,4.00
2018-01-27T02:05:24.462Z,4.00
2018-01-27T02:06:24.632Z,4.00
2018-01-27T02:07:24.488Z,4.00
2018-01-27T02:08:24.511Z,4.00
2018-01-27T02:09:24.517Z,4.00
2018-01-27T02:10:24.533Z,4.00
2018-01-27T02:11:24.542Z,4.00
2018-01-27T02:12:24.559Z,4.00
2018-01-27T02:13:24.621Z,4.00
2018-01-27T02:14:24.595Z,4.00
2018-01-27T02:15:24.891Z,4.00
2018-01-27T02:16:24.615Z,4.00
2018-01-27T02:17:24.625Z,4.00
2018-01-27T02:18:24.640Z,4.00
2018-01-27T02:19:24.656Z,4.00
2018-01-27T02:20:24.682Z,4.00
2018-01-27T02:21:24.683Z,4.00
2018-01-27T02:22:24.695Z,4.00
2018-01-27T02:23:24.708Z,4.00
2018-01-27T02:24:24.720Z,4.00
2018-01-27T02:25:24.736Z,4.00
2018-01-27T02:26:24.746Z,4.00
2018-01-27T02:27:24.760Z,4.00
2018-01-27T02:28:24.776Z,4.00
2018-01-27T02:29:24.788Z,4.00
2018-01-27T02:30:24.802Z,4.00
2018-01-27T02:31:24.965Z,4.00
2018-01-27T02:32:24.832Z,4.00
2018-01-27T02:33:24.842Z,4.00
2018-01-27T02:34:24.855Z,4.00
2018-01-27T02:35:24.871Z,4.00
2018-01-27T02:36:25.031Z,4.00
2018-01-27T02:37:24.896Z,4.00
2018-01-27T02:38:24.907Z,4.00
2018-01-27T02:39:24.923Z,4.00
2018-01-27T02:40:24.936Z,4.00
2018-01-27T02:41:24.949Z,4.00
2018-01-27T02:42:24.966Z,4.00
2018-01-27T02:43:25.126Z,4.00
2018-01-27T02:44:24.994Z,4.00
2018-01-27T02:45:25.003Z,4.00
2018-01-27T02:46:25.022Z,4.00
2018-01-27T02:47:25.029Z,4.00
2018-01-27T02:48:25.043Z,4.00
2018-01-27T02:49:25.060Z,4.00
2018-01-27T02:50:25.077Z,4.00
2018-01-27T02:51:25.086Z,4.00
2018-01-27T02:52:25.101Z,4.00
2018-01-27T02:53:25.112Z,4.00
2018-01-27T02:54:25.127Z,4.00
2018-01-27T02:55:25.140Z,4.00
2018-01-27T02:56:25.151Z,4.00
2018-01-27T02:57:25.167Z,4.00
2018-01-27T02:58:25.181Z,4.00
2018-01-27T02:59:25.195Z,4.00
2018-01-27T03:00:25.212Z,4.00
2018-01-27T03:01:25.219Z,4.00
2018-01-27T03:02:25.234Z,4.00
2018-01-27T03:03:25.398Z,4.00
2018-01-27T03:04:25.259Z,4.00
2018-01-27T03:05:25.285Z,4.00
2018-01-27T03:06:25.288Z,4.00
2018-01-27T03:07:25.299Z,4.00
2018-01-27T03:08:25.308Z,4.00
2018-01-27T03:09:25.319Z,4.00
2018-01-27T03:10:25.343Z,4.00
2018-01-27T03:11:25.346Z,4.00
2018-01-27T03:12:25.434Z,4.00
2018-01-27T03:13:25.472Z,4.00
2018-01-27T03:14:25.385Z,4.00
2018-01-27T03:15:25.403Z,4.00
2018-01-27T03:16:25.416Z,4.00
2018-01-27T03:17:25.426Z,4.00
2018-01-27T03:18:25.440Z,4.00
2018-01-27T03:19:25.527Z,4.00
2018-01-27T03:20:25.467Z,4.00
2018-01-27T03:21:25.488Z,4.00
2018-01-27T03:22:25.497Z,4.00
2018-01-27T03:23:25.507Z,4.00
2018-01-27T03:24:25.524Z,4.00
2018-01-27T03:25:25.533Z,4.00
2018-01-27T03:26:25.547Z,4.00
2018-01-27T03:27:25.560Z,4.00
2018-01-27T03:28:25.584Z,4.00
2018-01-27T03:29:25.586Z,4.00
2018-01-27T03:30:25.606Z,4.00
2018-01-27T03:31:25.767Z,4.00
2018-01-27T03:32:25.626Z,4.00
2018-01-27T03:33:25.643Z,4.00
2018-01-27T03:34:25.653Z,4.00
2018-01-27T03:35:25.667Z,4.00
2018-01-27T03:36:25.680Z,4.00
2018-01-27T03:37:25.695Z,4.00
2018-01-27T03:38:25.708Z,4.00
2018-01-27T03:39:25.720Z,4.00
2018-01-27T03:40:25.740Z,4.00
2018-01-27T03:41:25.748Z,4.00
2018-01-27T03:42:25.760Z,4.00
2018-01-27T03:43:25.774Z,4.00
2018-01-27T03:44:25.993Z,4.00
2018-01-27T03:45:25.802Z,4.00
2018-01-27T03:46:25.814Z,4.00
2018-01-27T03:47:25.862Z,4.00
2018-01-27T03:48:25.851Z,4.00
2018-01-27T03:49:25.854Z,4.00
2018-01-27T03:50:25.868Z,4.00
2018-01-27T03:51:25.931Z,4.00
2018-01-27T03:52:25.898Z,4.00
2018-01-27T03:53:25.909Z,4.00
2018-01-27T03:54:25.921Z,4.00
2018-01-27T03:55:25.934Z,4.00
2018-01-27T03:56:25.949Z,4.00
2018-01-27T03:57:25.961Z,4.00
2018-01-27T03:58:25.975Z,4.00
2018-01-27T03:59:26.317Z,4.00
2018-01-27T04:00:26.529Z,4.00
2018-01-27T04:01:26.015Z,4.00
2018-01-27T04:02:26.028Z,4.00
2018-01-27T04:03:26.043Z,4.00
2018-01-27T04:04:26.059Z,4.00
2018-01-27T04:05:26.068Z,4.00
2018-01-27T04:06:26.087Z,4.00
2018-01-27T04:07:26.094Z,4.00
2018-01-27T04:08:26.109Z,4.00
2018-01-27T04:09:26.123Z,4.00
2018-01-27T04:10:26.133Z,4.00
2018-01-27T04:11:26.148Z,4.00
2018-01-27T04:12:26.310Z,4.00
2018-01-27T04:13:26.173Z,4.00
2018-01-27T04:14:26.191Z,4.00
2018-01-27T04:15:26.202Z,4.00
2018-01-27T04:16:26.224Z,4.00
2018-01-27T04:17:26.264Z,4.00
2018-01-27T04:18:26.241Z,4.00
2018-01-27T04:19:26.251Z,4.00
2018-01-27T04:20:26.273Z,4.00
2018-01-27T04:21:26.279Z,4.00
2018-01-27T04:22:26.294Z,4.00
2018-01-27T04:23:26.352Z,4.00
2018-01-27T04:24:26.316Z,4.00
2018-01-27T04:25:26.329Z,4.00
2018-01-27T04:26:26.344Z,4.00
2018-01-27T04:27:26.357Z,4.00
2018-01-27T04:28:26.370Z,4.00
2018-01-27T04:29:26.382Z,4.00
2018-01-27T04:30:26.396Z,4.00
2018-01-27T04:31:26.418Z,4.00
2018-01-27T04:32:26.470Z,4.00
2018-01-27T04:33:26.434Z,4.00
2018-01-27T04:34:26.446Z,4.00
2018-01-27T04:35:26.460Z,4.00
2018-01-27T04:36:26.471Z,4.00
2018-01-27T04:37:26.498Z,4.00
2018-01-27T04:38:26.497Z,4.00
2018-01-27T04:39:26.532Z,4.00
2018-01-27T04:40:26.528Z,4.00
2018-01-27T04:41:26.543Z,4.00
2018-01-27T04:42:26.550Z,4.00
2018-01-27T04:43:26.562Z,4.00
2018-01-27T04:44:26.576Z,4.00
2018-01-27T04:45:26.589Z,4.00
2018-01-27T04:46:26.605Z,4.00
2018-01-27T04:47:26.616Z,4.00
2018-01-27T04:48:26.629Z,4.00
2018-01-27T04:49:26.644Z,4.00
2018-01-27T04:50:26.660Z,4.00
2018-01-27T04:51:26.668Z,4.00
2018-01-27T04:52:27.021Z,4.00
2018-01-27T04:53:27.010Z,4.00
2018-01-27T04:54:26.732Z,4.00
2018-01-27T04:55:26.718Z,4.00
2018-01-27T04:56:27.071Z,4.00
2018-01-27T04:57:26.753Z,4.00
2018-01-27T04:58:26.758Z,4.00
2018-01-27T04:59:26.774Z,4.00
2018-01-27T05:00:26.836Z,4.00
2018-01-27T05:01:26.801Z,4.00
2018-01-27T05:02:26.812Z,4.00
2018-01-27T05:03:26.823Z,4.00
2018-01-27T05:04:26.839Z,4.00
2018-01-27T05:05:26.848Z,4.00
2018-01-27T05:06:26.878Z,4.00
2018-01-27T05:07:26.874Z,4.00
2018-01-27T05:08:26.889Z,4.00
2018-01-27T05:09:26.903Z,4.00
2018-01-27T05:10:27.103Z,4.00
2018-01-27T05:11:26.927Z,4.00
2018-01-27T05:12:26.941Z,4.00
2018-01-27T05:13:26.954Z,4.00
2018-01-27T05:14:26.969Z,4.00
2018-01-27T05:15:26.990Z,4.00
2018-01-27T05:16:26.996Z,4.00
2018-01-27T05:17:27.010Z,4.00
2018-01-27T05:18:27.022Z,4.00
2018-01-27T05:19:27.187Z,4.00
2018-01-27T05:20:27.093Z,4.00
2018-01-27T05:21:27.061Z,4.00
2018-01-27T05:22:27.076Z,4.00
2018-01-27T05:23:27.086Z,4.00
2018-01-27T05:24:27.101Z,4.00
2018-01-27T05:25:27.263Z,4.00
2018-01-27T05:26:27.125Z,4.00
2018-01-27T05:27:27.153Z,4.00
2018-01-27T05:28:27.150Z,4.00
2018-01-27T05:29:27.164Z,4.00
2018-01-27T05:30:27.179Z,4.00
2018-01-27T05:31:27.190Z,4.00
2018-01-27T05:32:27.232Z,4.00
2018-01-27T05:33:27.216Z,4.00
2018-01-27T05:34:27.231Z,4.00
2018-01-27T05:35:27.243Z,4.00
2018-01-27T05:36:27.256Z,4.00
2018-01-27T05:37:27.268Z,4.00
2018-01-27T05:38:27.281Z,4.00
2018-01-27T05:39:27.296Z,4.00
2018-01-27T05:40:27.310Z,4.00
2018-01-27T05:41:27.318Z,4.00
2018-01-27T05:42:27.332Z,4.00
2018-01-27T05:43:27.344Z,4.00
2018-01-27T05:44:27.510Z,4.00
2018-01-27T05:45:27.375Z,4.00
2018-01-27T05:46:27.384Z,4.00
2018-01-27T05:47:27.398Z,4.00
2018-01-27T05:48:27.561Z,4.00
2018-01-27T05:49:27.424Z,4.00
2018-01-27T05:50:27.448Z,4.00
2018-01-27T05:51:27.459Z,4.00
2018-01-27T05:52:27.461Z,4.00
2018-01-27T05:53:27.475Z,4.00
2018-01-27T05:54:27.639Z,4.00
2018-01-27T05:55:27.501Z,4.00
2018-01-27T05:56:27.514Z,4.00
2018-01-27T05:57:27.539Z,4.00
2018-01-27T05:58:27.695Z,4.00
2018-01-27T05:59:27.707Z,4.00
2018-01-27T06:00:27.680Z,4.00
2018-01-27T06:01:27.583Z,4.00
2018-01-27T06:02:27.600Z,4.00
2018-01-27T06:03:27.606Z,4.00
2018-01-27T06:04:27.618Z,4.00
2018-01-27T06:05:27.631Z,4.00
2018-01-27T06:07:27.720Z,4.00
2018-01-27T06:08:27.992Z,4.00
2018-01-27T06:09:27.683Z,4.00
2018-01-27T06:10:27.697Z,4.00
2018-01-27T06:11:27.709Z,4.00
2018-01-27T06:12:27.724Z,4.00
2018-01-27T06:13:27.736Z,4.00
2018-01-27T06:14:27.749Z,4.00
2018-01-27T06:15:27.765Z,4.00
2018-01-27T06:16:27.776Z,4.00
2018-01-27T06:17:27.789Z,4.00
2018-01-27T06:18:27.801Z,4.00
2018-01-27T06:19:27.815Z,4.00
2018-01-27T06:20:27.827Z,4.00
2018-01-27T06:21:27.841Z,4.00
2018-01-27T06:22:27.854Z,4.00
2018-01-27T06:23:27.869Z,4.00
2018-01-27T06:24:27.882Z,4.00
2018-01-27T06:25:27.892Z,4.00
2018-01-27T06:26:27.905Z,4.00
2018-01-27T06:27:27.919Z,4.00
2018-01-27T06:28:27.933Z,4.00
2018-01-27T06:29:27.945Z,4.00
2018-01-27T06:30:27.958Z,4.00
2018-01-27T06:31:27.974Z,4.00
2018-01-27T06:32:27.993Z,4.00
2018-01-27T06:33:28.001Z,4.00
2018-01-27T06:34:28.012Z,4.00
2018-01-27T06:35:28.025Z,4.00
2018-01-27T06:36:28.039Z,4.00
2018-01-27T06:37:28.052Z,4.00
2018-01-27T06:38:28.063Z,4.00
2018-01-27T06:39:28.081Z,4.00
2018-01-27T06:40:28.101Z,4.00
2018-01-27T06:41:28.114Z,4.00
2018-01-27T06:42:28.118Z,4.00
2018-01-27T06:43:28.134Z,4.00
2018-01-27T06:44:28.148Z,4.00
2018-01-27T06:45:28.157Z,4.00
2018-01-27T06:46:28.171Z,4.00
2018-01-27T06:47:28.183Z,4.00
2018-01-27T06:48:28.197Z,4.00
2018-01-27T06:49:28.211Z,4.00
2018-01-27T06:50:28.224Z,0.00
2018-01-27T06:51:28.240Z,4.00
2018-01-27T06:52:28.249Z,4.00
2018-01-27T06:53:28.263Z,4.00
2018-01-27T06:54:28.275Z,4.00
2018-01-27T06:55:28.334Z,4.00
2018-01-27T06:56:28.303Z,8.00
2018-01-27T06:57:28.321Z,4.00
2018-01-27T06:58:28.341Z,4.00
2018-01-27T06:59:28.343Z,4.00
2018-01-27T07:00:28.363Z,8.00
2018-01-27T07:01:28.371Z,4.00
2018-01-27T07:02:28.419Z,8.00
2018-01-27T07:03:28.400Z,8.00
2018-01-27T07:04:28.424Z,8.00
2018-01-27T07:05:28.424Z,8.00
2018-01-27T07:06:28.436Z,12.00
2018-01-27T07:07:28.449Z,12.00
2018-01-27T07:08:28.466Z,12.00
2018-01-27T07:09:28.878Z,8.00
2018-01-27T07:10:28.491Z,12.00
2018-01-27T07:11:28.506Z,12.00
2018-01-27T07:12:28.516Z,16.00
2018-01-27T07:13:28.531Z,16.00
2018-01-27T07:14:28.543Z,16.00
2018-01-27T07:15:28.563Z,20.00
2018-01-27T07:16:28.569Z,20.00
2018-01-27T07:17:28.584Z,24.00
2018-01-27T07:18:28.597Z,28.00
2018-01-27T07:19:28.608Z,28.00
2018-01-27T07:20:28.623Z,36.00
2018-01-27T07:21:28.639Z,40.00
2018-01-27T07:22:28.653Z,40.00
2018-01-27T07:23:28.668Z,44.00
2018-01-27T07:24:28.675Z,48.00
2018-01-27T07:25:28.689Z,48.00
2018-01-27T07:26:28.701Z,52.00
2018-01-27T07:27:28.715Z,52.00
2018-01-27T07:28:28.729Z,60.00
2018-01-27T07:29:28.744Z,60.00
2018-01-27T07:30:28.753Z,64.00
2018-01-27T07:31:28.767Z,64.00
2018-01-27T07:32:28.782Z,64.00
2018-01-27T07:33:28.797Z,68.00
2018-01-27T07:34:28.809Z,68.00
2018-01-27T07:35:28.825Z,72.00
2018-01-27T07:36:28.836Z,76.00
2018-01-27T07:37:28.935Z,88.00
2018-01-27T07:38:28.861Z,96.00
2018-01-27T07:39:28.979Z,104.00
2018-01-27T07:40:29.155Z,108.00
2018-01-27T07:41:28.902Z,120.00
2018-01-27T07:42:28.923Z,124.00
2018-01-27T07:43:28.927Z,132.00
2018-01-27T07:44:28.944Z,140.00
2018-01-27T07:45:28.956Z,144.00
2018-01-27T07:46:28.980Z,152.00
2018-01-27T07:47:28.983Z,156.00
2018-01-27T07:48:29.146Z,156.00
2018-01-27T07:49:29.010Z,160.00
2018-01-27T07:50:29.022Z,160.00
2018-01-27T07:51:29.036Z,168.00
2018-01-27T07:52:29.054Z,172.00
2018-01-27T07:53:29.064Z,176.00
2018-01-27T07:54:29.077Z,184.00
2018-01-27T07:55:29.089Z,192.00
2018-01-27T07:56:29.102Z,208.00
2018-01-27T07:57:29.116Z,216.00
2018-01-27T07:58:29.128Z,228.00
2018-01-27T07:59:29.142Z,236.00
2018-01-27T08:00:29.157Z,240.00
2018-01-27T08:01:29.169Z,248.00
2018-01-27T08:02:29.186Z,264.00
2018-01-27T08:03:29.199Z,272.00
2018-01-27T08:04:29.216Z,268.00
2018-01-27T08:05:29.224Z,268.00
2018-01-27T08:06:29.244Z,272.00
2018-01-27T08:07:29.282Z,272.00
2018-01-27T08:08:29.261Z,276.00
2018-01-27T08:09:29.288Z,280.00
2018-01-27T08:10:29.291Z,292.00
2018-01-27T08:11:29.303Z,312.00
2018-01-27T08:12:29.317Z,332.00
2018-01-27T08:13:29.330Z,352.00
2018-01-27T08:14:29.614Z,356.00
2018-01-27T08:15:29.469Z,356.00
2018-01-27T08:16:29.369Z,352.00
2018-01-27T08:17:29.433Z,352.00
2018-01-27T08:18:29.394Z,360.00
2018-01-27T08:19:29.408Z,348.00
2018-01-27T08:20:29.425Z,356.00
2018-01-27T08:21:29.434Z,368.00
2018-01-27T08:22:29.607Z,400.00
2018-01-27T08:23:29.465Z,444.00
2018-01-27T08:24:29.476Z,480.00
2018-01-27T08:25:29.490Z,508.00
2018-01-27T08:26:29.502Z,528.00
2018-01-27T08:27:29.514Z,536.00
2018-01-27T08:28:29.632Z,548.00
2018-01-27T08:29:29.542Z,552.00
2018-01-27T08:30:29.560Z,540.00
2018-01-27T08:31:29.569Z,520.00
2018-01-27T08:32:29.582Z,496.00
2018-01-27T08:33:29.604Z,472.00
2018-01-27T08:34:29.615Z,456.00
2018-01-27T08:35:29.628Z,436.00
2018-01-27T08:36:29.636Z,436.00
2018-01-27T08:37:29.652Z,456.00
2018-01-27T08:38:29.666Z,500.00
2018-01-27T08:39:29.693Z,532.00
2018-01-27T08:40:29.701Z,548.00
2018-01-27T08:41:29.730Z,592.00
2018-01-27T08:42:29.726Z,636.00
2018-01-27T08:43:29.731Z,712.00
2018-01-27T08:44:29.751Z,784.00
2018-01-27T08:45:29.760Z,840.00
2018-01-27T08:46:29.772Z,912.00
2018-01-27T08:47:29.786Z,968.00
2018-01-27T08:48:29.799Z,1004.00
2018-01-27T08:49:29.811Z,1040.00
2018-01-27T08:50:29.827Z,1040.00
2018-01-27T08:51:29.841Z,1016.00
2018-01-27T08:52:29.855Z,976.00
2018-01-27T08:53:29.865Z,960.00
2018-01-27T08:54:29.882Z,1012.00
2018-01-27T08:55:29.893Z,1108.00
2018-01-27T08:56:29.905Z,1200.00
2018-01-27T08:57:29.923Z,1252.00
2018-01-27T08:58:29.934Z,1276.00
2018-01-27T08:59:29.952Z,1292.00
2018-01-27T09:00:30.162Z,1308.00
2018-01-27T09:01:29.974Z,1312.00
2018-01-27T09:02:29.991Z,1336.00
2018-01-27T09:03:30.001Z,1364.00
2018-01-27T09:04:30.031Z,1400.00
2018-01-27T09:05:30.026Z,1412.00
2018-01-27T09:06:30.048Z,1416.00
2018-01-27T09:07:30.053Z,1448.00
2018-01-27T09:08:30.072Z,1488.00
2018-01-27T09:09:30.094Z,1516.00
2018-01-27T09:10:30.110Z,1472.00
2018-01-27T09:11:30.108Z,1400.00
2018-01-27T09:12:30.150Z,1364.00
2018-01-27T09:13:30.355Z,1420.00
2018-01-27T09:14:30.149Z,1556.00
2018-01-27T09:15:30.191Z,1532.00
2018-01-27T09:16:30.177Z,1424.00
2018-01-27T09:17:30.193Z,1320.00
2018-01-27T09:18:30.202Z,1272.00
2018-01-27T09:19:30.218Z,1280.00
2018-01-27T09:20:30.233Z,1304.00
2018-01-27T09:21:30.250Z,1368.00
2018-01-27T09:22:30.441Z,1432.00
2018-01-27T09:23:30.710Z,1492.00
2018-01-27T09:24:30.282Z,1560.00
2018-01-27T09:25:30.298Z,1644.00
2018-01-27T09:26:30.316Z,1724.00
2018-01-27T09:27:30.355Z,1800.00
2018-01-27T09:28:30.338Z,1872.00
2018-01-27T09:29:30.349Z,1916.00
2018-01-27T09:30:30.671Z,1956.00
2018-01-27T09:31:30.380Z,1924.00
2018-01-27T09:32:30.391Z,1884.00
2018-01-27T09:33:30.404Z,1876.00
2018-01-27T09:34:30.419Z,1904.00
2018-01-27T09:35:30.436Z,1992.00
2018-01-27T09:36:30.446Z,2088.00
2018-01-27T09:37:30.459Z,2064.00
2018-01-27T09:38:30.474Z,2132.00
2018-01-27T09:39:30.509Z,2652.00
2018-01-27T09:40:30.503Z,2744.00
2018-01-27T09:41:30.524Z,3252.00
2018-01-27T09:42:30.683Z,3256.00
2018-01-27T09:43:30.549Z,3348.00
2018-01-27T09:44:30.705Z,3436.00
2018-01-27T09:45:30.578Z,3516.00
2018-01-27T09:46:30.616Z,3532.00
2018-01-27T09:47:30.615Z,3364.00
2018-01-27T09:48:30.912Z,3184.00
2018-01-27T09:49:30.769Z,2952.00
2018-01-27T09:50:30.635Z,3004.00
2018-01-27T09:51:30.645Z,3224.00
2018-01-27T09:52:30.664Z,3172.00
2018-01-27T09:53:30.673Z,3444.00
2018-01-27T09:54:30.692Z,3604.00
2018-01-27T09:55:30.702Z,3652.00
2018-01-27T09:56:30.716Z,3656.00
2018-01-27T09:57:30.734Z,3832.00
2018-01-27T09:58:30.745Z,3780.00
2018-01-27T09:59:30.758Z,3556.00
2018-01-27T10:00:30.769Z,3196.00
2018-01-27T10:01:30.787Z,3328.00
2018-01-27T10:02:30.796Z,2632.00
2018-01-27T10:03:30.947Z,2872.00
2018-01-27T10:04:30.825Z,2600.00
2018-01-27T10:05:30.839Z,2556.00
2018-01-27T10:06:30.853Z,2940.00
2018-01-27T10:07:31.117Z,3196.00
2018-01-27T10:08:30.886Z,2876.00
2018-01-27T10:09:31.049Z,3356.00
2018-01-27T10:10:31.057Z,3284.00
2018-01-27T10:11:30.923Z,3000.00
2018-01-27T10:12:31.086Z,2940.00
2018-01-27T10:13:30.954Z,3220.00
2018-01-27T10:14:30.966Z,3100.00
2018-01-27T10:15:31.599Z,3256.00
2018-01-27T10:16:30.993Z,2920.00
2018-01-27T10:17:31.008Z,3340.00
2018-01-27T10:18:31.019Z,3316.00
2018-01-27T10:19:31.039Z,3528.00
2018-01-27T10:20:31.048Z,3216.00
2018-01-27T10:21:31.064Z,2580.00
2018-01-27T10:22:31.082Z,2544.00
2018-01-27T10:23:31.091Z,2576.00
2018-01-27T10:24:31.103Z,2544.00
2018-01-27T10:25:31.120Z,2580.00
2018-01-27T10:26:31.134Z,2700.00
2018-01-27T10:27:31.147Z,2764.00
2018-01-27T10:28:31.160Z,2636.00
2018-01-27T10:29:31.175Z,2460.00
2018-01-27T10:30:31.186Z,2516.00
2018-01-27T10:31:31.200Z,2656.00
2018-01-27T10:32:31.219Z,2896.00
2018-01-27T10:33:31.232Z,2960.00
2018-01-27T10:34:31.396Z,2612.00
2018-01-27T10:35:31.263Z,2268.00
2018-01-27T10:36:31.270Z,2524.00
2018-01-27T10:37:31.284Z,2868.00
2018-01-27T10:38:31.296Z,2884.00
2018-01-27T10:39:31.311Z,2508.00
2018-01-27T10:40:31.330Z,2184.00
2018-01-27T10:41:31.339Z,2212.00
2018-01-27T10:42:31.353Z,2400.00
2018-01-27T10:43:31.366Z,2336.00
2018-01-27T10:44:31.421Z,2180.00
2018-01-27T10:45:31.395Z,2500.00
2018-01-27T10:46:31.416Z,2560.00
2018-01-27T10:47:31.425Z,2436.00
2018-01-27T10:48:31.435Z,2552.00
2018-01-27T10:49:31.447Z,2876.00
2018-01-27T10:50:31.462Z,4088.00
2018-01-27T10:51:31.481Z,3828.00
2018-01-27T10:52:31.507Z,3812.00
2018-01-27T10:53:31.502Z,3248.00
2018-01-27T10:54:31.515Z,2824.00
2018-01-27T10:55:31.528Z,1976.00
2018-01-27T10:56:31.690Z,2036.00
2018-01-27T10:57:31.555Z,2280.00
2018-01-27T10:58:31.568Z,2256.00
2018-01-27T10:59:31.583Z,2408.00
2018-01-27T11:00:31.600Z,2772.00
2018-01-27T11:01:31.759Z,2716.00
2018-01-27T11:02:31.628Z,2548.00
2018-01-27T11:03:31.638Z,2408.00
2018-01-27T11:04:31.652Z,2340.00
2018-01-27T11:05:31.664Z,2312.00
2018-01-27T11:06:31.684Z,2240.00
2018-01-27T11:07:31.692Z,1980.00
2018-01-27T11:08:31.707Z,1856.00
2018-01-27T11:09:31.721Z,1944.00
2018-01-27T11:10:31.892Z,1984.00
2018-01-27T11:11:31.749Z,1952.00
2018-01-27T11:12:31.759Z,1880.00
2018-01-27T11:13:31.778Z,1796.00
2018-01-27T11:14:31.788Z,1744.00
2018-01-27T11:15:31.965Z,1732.00
2018-01-27T11:16:31.834Z,1656.00
2018-01-27T11:17:31.832Z,1528.00
2018-01-27T11:18:31.842Z,1488.00
2018-01-27T11:19:31.864Z,1468.00
2018-01-27T11:20:31.887Z,1476.00
2018-01-27T11:21:31.901Z,1644.00
2018-01-27T11:22:31.901Z,1708.00
2018-01-27T11:23:31.942Z,1604.00
2018-01-27T11:24:31.923Z,1496.00
2018-01-27T11:25:31.993Z,1388.00
2018-01-27T11:26:31.951Z,1356.00
2018-01-27T11:27:32.693Z,1400.00
2018-01-27T11:28:32.536Z,1488.00
2018-01-27T11:29:31.991Z,1540.00
2018-01-27T11:30:32.006Z,1636.00
2018-01-27T11:31:32.019Z,1672.00
2018-01-27T11:32:32.033Z,1592.00
2018-01-27T11:33:32.051Z,1512.00
2018-01-27T11:34:32.060Z,1532.00
2018-01-27T11:35:32.074Z,1600.00
2018-01-27T11:36:32.090Z,1600.00
2018-01-27T11:37:32.102Z,1568.00
2018-01-27T11:38:32.114Z,1508.00
2018-01-27T11:39:32.129Z,1568.00
2018-01-27T11:40:32.142Z,1616.00
2018-01-27T11:41:32.164Z,1568.00
2018-01-27T11:42:32.324Z,1484.00
2018-01-27T11:43:32.184Z,1424.00
2018-01-27T11:44:32.212Z,1448.00
2018-01-27T11:45:32.211Z,1436.00
2018-01-27T11:46:32.226Z,1436.00
2018-01-27T11:47:32.238Z,1460.00
2018-01-27T11:48:32.252Z,1492.00
2018-01-27T11:49:32.269Z,1516.00
2018-01-27T11:50:32.280Z,1620.00
2018-01-27T11:51:32.295Z,1816.00
2018-01-27T11:52:32.307Z,1980.00
2018-01-27T11:53:32.326Z,2080.00
2018-01-27T11:54:32.368Z,2220.00
2018-01-27T11:55:32.368Z,2524.00
2018-01-27T11:56:32.368Z,2676.00
2018-01-27T11:57:32.375Z,2556.00
2018-01-27T11:58:32.390Z,2424.00
2018-01-27T11:59:32.403Z,2368.00
2018-01-27T12:00:32.418Z,2596.00
2018-01-27T12:01:32.429Z,3012.00
2018-01-27T12:02:32.445Z,2908.00
2018-01-27T12:03:32.458Z,2764.00
2018-01-27T12:04:32.471Z,2704.00
2018-01-27T12:05:32.486Z,2572.00
2018-01-27T12:06:32.499Z,2336.00
2018-01-27T12:07:32.532Z,2104.00
2018-01-27T12:08:32.531Z,1968.00
2018-01-27T12:09:32.699Z,1968.00
2018-01-27T12:10:32.704Z,1964.00
2018-01-27T12:11:32.570Z,1928.00
2018-01-27T12:12:32.589Z,1860.00
2018-01-27T12:13:32.597Z,1808.00
2018-01-27T12:14:32.610Z,1720.00
2018-01-27T12:15:32.623Z,1784.00
2018-01-27T12:16:32.641Z,1876.00
2018-01-27T12:17:32.652Z,1768.00
2018-01-27T12:18:32.665Z,1736.00
2018-01-27T12:19:32.679Z,1756.00
2018-01-27T12:20:32.697Z,1896.00
2018-01-27T12:21:32.708Z,1884.00
2018-01-27T12:22:32.722Z,1860.00
2018-01-27T12:23:32.735Z,1908.00
2018-01-27T12:24:32.756Z,1992.00
2018-01-27T12:25:32.816Z,1956.00
2018-01-27T12:26:33.125Z,1884.00
2018-01-27T12:27:32.807Z,1948.00
2018-01-27T12:28:32.808Z,2024.00
2018-01-27T12:29:32.819Z,1940.00
2018-01-27T12:30:32.834Z,1784.00
2018-01-27T12:31:32.848Z,1688.00
2018-01-27T12:32:32.862Z,1712.00
2018-01-27T12:33:32.880Z,1748.00
2018-01-27T12:34:32.887Z,1764.00
2018-01-27T12:35:32.905Z,1944.00
2018-01-27T12:36:32.920Z,2040.00
2018-01-27T12:37:32.933Z,1888.00
2018-01-27T12:38:32.943Z,1756.00
2018-01-27T12:39:32.959Z,1820.00
2018-01-27T12:40:32.973Z,2000.00
2018-01-27T12:41:33.091Z,2084.00
2018-01-27T12:42:32.999Z,1856.00
2018-01-27T12:43:33.017Z,1648.00
2018-01-27T12:44:33.027Z,1684.00
2018-01-27T12:45:33.041Z,1944.00
2018-01-27T12:46:33.053Z,2016.00
2018-01-27T12:47:33.116Z,1820.00
2018-01-27T12:48:33.085Z,1608.00
2018-01-27T12:49:33.098Z,1372.00
2018-01-27T12:50:33.111Z,1384.00
2018-01-27T12:51:33.126Z,1416.00
2018-01-27T12:52:33.148Z,1368.00
2018-01-27T12:53:33.162Z,1612.00